Derby, Kansas
Current Conditions -  °F | °C
As of 12:58 PM on Monday 20 Oct 2014 (Local Time) from KIAB Reporting Station
Clear Clear  
Wind Chill: 74°   Ceiling: Unl
Heat Index: 74°   Visibility: 10mi
Dew Point: 55°   Wind: 7mph
Humidity: 51%   Direction: 90°E
Pressure: 30.07"   Gusts: NA
Location:  37.54°N, 97.27°W
Report Text: KIAB 201758Z AUTO 09006KT 10SM CLR 24/13 A3007 RMK AO2 SLP177 T02360128 10236 20122 58002
Loading
Personal Weather Stations






























Interactive Weather Map
Tropical Storm Tracking
New forecast layout! Learn more

10-Day Weather Forecast

Advertisements
Track Severe Weather on mobile